Time;durP1;ratioP1;P1;durP2;ratioP2;P2;SDS_P1;SDS_P2;PMS_P1;PMS_P2;Temp;Humidity;BMP_temperature;BMP_pressure;BME280_temperature;BME280_humidity;BME280_pressure;Samples;Min_cycle;Max_cycle;Signal;HPM_P1;HPM_P2
2023/12/23 00:02:22;;;;;;;3.20;1.20;;;4.20;99.90;;;;;;5033594;28;20497;-80
2023/12/23 00:04:48;;;;;;;3.28;1.50;;;4.50;99.90;;;;;;5017210;28;20409;-80
2023/12/23 00:07:14;;;;;;;3.05;1.70;;;4.50;99.90;;;;;;5033585;28;20114;-80
2023/12/23 00:09:43;;;;;;;2.47;1.75;;;4.40;99.90;;;;;;5016942;28;20048;-79
2023/12/23 00:12:09;;;;;;;2.90;1.40;;;4.40;99.90;;;;;;5016762;28;20044;-79
2023/12/23 00:14:35;;;;;;;1.98;1.38;;;4.40;99.90;;;;;;5016861;28;20037;-80
2023/12/23 00:17:02;;;;;;;2.72;1.60;;;4.40;99.90;;;;;;5033727;28;20044;-80
2023/12/23 00:19:28;;;;;;;2.80;1.52;;;4.50;99.90;;;;;;5016801;28;20128;-80
2023/12/23 00:21:57;;;;;;;4.03;1.80;;;4.50;99.90;;;;;;5033570;28;20072;-80
2023/12/23 00:24:26;;;;;;;2.92;1.50;;;4.30;99.90;;;;;;5033507;28;20041;-80
2023/12/23 00:26:53;;;;;;;3.13;1.48;;;5.10;99.90;;;;;;5032980;28;20041;-80
2023/12/23 00:29:19;;;;;;;3.40;1.60;;;4.50;99.90;;;;;;5033158;28;20128;-80
2023/12/23 00:31:44;;;;;;;3.05;1.30;;;4.40;99.90;;;;;;5033076;28;20573;-81
2023/12/23 00:34:10;;;;;;;4.25;1.92;;;4.80;99.90;;;;;;5017000;28;20493;-81
2023/12/23 00:36:35;;;;;;;2.42;1.13;;;4.40;99.90;;;;;;5033453;28;20029;-81
2023/12/23 00:39:01;;;;;;;2.10;1.30;;;5.00;99.90;;;;;;5016949;28;20615;-81
2023/12/23 00:41:27;;;;;;;2.42;1.38;;;4.30;99.90;;;;;;5033376;28;20048;-81
2023/12/23 00:43:53;;;;;;;4.43;1.65;;;4.40;99.90;;;;;;5016708;28;20061;-81
2023/12/23 00:46:20;;;;;;;3.08;1.38;;;4.40;99.90;;;;;;5017297;28;20041;-81
2023/12/23 00:48:45;;;;;;;3.72;1.77;;;4.40;99.90;;;;;;5032919;28;20520;-81
2023/12/23 00:51:11;;;;;;;4.43;1.88;;;5.00;99.90;;;;;;5016830;28;20053;-82
2023/12/23 00:53:37;;;;;;;3.15;1.60;;;4.50;99.90;;;;;;5033062;28;20033;-82
2023/12/23 00:56:03;;;;;;;5.65;1.70;;;4.50;99.90;;;;;;5033027;28;20079;-81
2023/12/23 00:58:29;;;;;;;2.33;1.50;;;4.60;99.90;;;;;;5033079;28;20124;-81
2023/12/23 01:00:54;;;;;;;3.50;1.60;;;5.40;99.90;;;;;;5016216;28;20473;-81
2023/12/23 01:03:20;;;;;;;2.17;1.10;;;4.70;99.90;;;;;;5016571;28;20575;-82
2023/12/23 01:05:46;;;;;;;2.35;1.42;;;4.70;99.90;;;;;;5032483;28;20068;-82
2023/12/23 01:08:12;;;;;;;4.75;1.55;;;5.40;99.90;;;;;;5016224;28;20049;-82
2023/12/23 01:10:37;;;;;;;1.52;1.13;;;4.80;99.90;;;;;;5032708;28;20056;-77
2023/12/23 01:13:03;;;;;;;3.13;1.38;;;4.80;99.90;;;;;;5032424;28;20065;-77
2023/12/23 01:15:29;;;;;;;2.33;1.10;;;4.80;99.90;;;;;;5032117;28;20037;-77
2023/12/23 01:17:55;;;;;;;1.77;1.02;;;5.00;99.90;;;;;;5015771;28;20087;-77
2023/12/23 01:20:20;;;;;;;2.83;1.65;;;4.90;99.90;;;;;;5015862;28;20041;-77
2023/12/23 01:22:47;;;;;;;3.80;1.80;;;5.00;99.90;;;;;;5015638;28;20037;-77
2023/12/23 01:25:12;;;;;;;2.22;1.40;;;5.00;99.90;;;;;;5015625;28;20099;-78
2023/12/23 01:27:38;;;;;;;3.10;1.45;;;5.10;99.90;;;;;;5032493;28;20041;-77
2023/12/23 01:30:05;;;;;;;5.03;1.50;;;5.20;99.90;;;;;;5032325;28;20037;-77
2023/12/23 01:32:31;;;;;;;2.70;1.50;;;5.10;99.90;;;;;;5031960;28;20042;-77
2023/12/23 01:34:56;;;;;;;2.90;1.20;;;5.30;99.90;;;;;;5015501;28;20378;-77
2023/12/23 01:37:22;;;;;;;3.58;1.75;;;5.40;99.90;;;;;;5014470;28;20045;-78
2023/12/23 01:39:48;;;;;;;3.22;1.50;;;5.50;99.90;;;;;;5015431;28;20112;-77
2023/12/23 01:42:13;;;;;;;4.68;1.60;;;5.30;99.90;;;;;;5032121;28;20382;-77
2023/12/23 01:44:39;;;;;;;1.48;0.95;;;5.30;99.90;;;;;;5031759;28;20061;-76
2023/12/23 01:47:05;;;;;;;3.67;1.63;;;5.40;99.90;;;;;;5015637;28;20045;-77
2023/12/23 01:49:32;;;;;;;3.83;1.75;;;5.60;99.90;;;;;;5015091;28;20171;-76
2023/12/23 01:51:59;;;;;;;2.10;1.45;;;5.40;99.90;;;;;;5015160;28;20135;-77
2023/12/23 01:54:26;;;;;;;5.55;2.55;;;5.50;99.90;;;;;;5015141;28;20041;-78
2023/12/23 01:56:53;;;;;;;2.60;1.40;;;5.50;99.90;;;;;;5015059;28;20049;-77
2023/12/23 01:59:19;;;;;;;2.88;1.55;;;5.60;99.90;;;;;;5015290;28;20041;-77
2023/12/23 02:01:45;;;;;;;2.38;1.23;;;5.60;99.90;;;;;;5014883;28;20041;-77
2023/12/23 02:04:11;;;;;;;3.15;1.60;;;5.60;99.90;;;;;;5031409;28;20149;-77
2023/12/23 02:06:37;;;;;;;1.73;1.30;;;5.60;99.90;;;;;;5031248;28;20401;-77
2023/12/23 02:09:03;;;;;;;4.25;1.48;;;5.70;99.90;;;;;;5014875;28;20042;-77
2023/12/23 02:11:44;;;;;;;2.15;1.20;;;5.60;99.90;;;;;;5014649;28;20757;-77
2023/12/23 02:14:22;;;;;;;3.97;1.80;;;5.70;99.90;;;;;;5031195;28;20049;-77
2023/12/23 02:16:49;;;;;;;2.72;1.55;;;5.70;99.90;;;;;;5031199;28;20033;-77
2023/12/23 02:19:14;;;;;;;4.47;1.73;;;5.70;99.90;;;;;;5014589;28;20076;-77
2023/12/23 02:21:40;;;;;;;1.35;1.02;;;5.70;99.90;;;;;;5031149;28;20103;-77
2023/12/23 02:24:05;;;;;;;2.17;1.15;;;5.70;99.90;;;;;;5031005;28;20045;-76
2023/12/23 02:26:33;;;;;;;3.05;1.50;;;5.70;99.90;;;;;;5031027;28;20045;-77
2023/12/23 02:29:01;;;;;;;2.35;1.25;;;5.70;99.90;;;;;;5030847;28;20043;-76
2023/12/23 02:31:27;;;;;;;1.17;0.98;;;5.70;99.90;;;;;;5014920;28;20533;-87
2023/12/23 02:33:53;;;;;;;1.92;1.00;;;5.70;99.90;;;;;;5015528;28;20037;-87
2023/12/23 02:36:22;;;;;;;1.40;1.30;;;5.60;99.90;;;;;;5031798;28;20440;-88
2023/12/23 02:38:48;;;;;;;2.10;1.10;;;5.60;99.90;;;;;;5032272;28;20044;-88
2023/12/23 02:41:14;;;;;;;1.38;1.00;;;5.50;99.90;;;;;;5015175;28;20409;-80
2023/12/23 02:43:40;;;;;;;1.75;1.02;;;5.50;99.90;;;;;;5014650;28;20068;-81
2023/12/23 02:46:05;;;;;;;2.03;1.10;;;5.60;99.90;;;;;;5031100;28;20495;-82
2023/12/23 02:48:31;;;;;;;1.63;1.45;;;5.90;99.90;;;;;;5014606;28;20601;-81
2023/12/23 02:50:57;;;;;;;1.92;1.15;;;5.60;99.90;;;;;;5014874;28;20041;-76
2023/12/23 02:53:22;;;;;;;2.00;1.10;;;5.60;99.90;;;;;;5031073;28;20038;-76
2023/12/23 02:55:48;;;;;;;2.22;1.42;;;5.50;99.90;;;;;;5014411;28;20040;-76
2023/12/23 02:58:13;;;;;;;3.67;1.30;;;5.50;99.90;;;;;;5031333;28;20045;-76
2023/12/23 03:00:39;;;;;;;2.42;1.08;;;5.50;99.90;;;;;;5014539;28;20414;-76
2023/12/23 03:03:05;;;;;;;2.67;1.17;;;5.40;99.90;;;;;;5030490;28;20456;-76
2023/12/23 03:05:30;;;;;;;0.88;0.77;;;5.40;99.90;;;;;;5030456;28;20045;-75
2023/12/23 03:07:56;;;;;;;3.13;0.95;;;5.30;99.90;;;;;;5014169;28;20075;-76
2023/12/23 03:10:22;;;;;;;1.88;1.05;;;5.30;99.90;;;;;;5030512;28;20461;-77
2023/12/23 03:12:47;;;;;;;1.55;0.90;;;5.30;99.90;;;;;;5030756;28;20029;-76
2023/12/23 03:15:13;;;;;;;1.83;0.93;;;5.20;99.90;;;;;;5013853;28;20037;-76
2023/12/23 03:17:39;;;;;;;1.05;0.80;;;5.20;99.90;;;;;;5030616;28;20053;-76
2023/12/23 03:20:05;;;;;;;2.05;1.00;;;5.20;99.90;;;;;;5014395;28;20049;-76
2023/12/23 03:22:32;;;;;;;1.38;0.90;;;5.10;99.90;;;;;;5014103;28;20053;-76
2023/12/23 03:24:57;;;;;;;4.50;1.27;;;5.10;99.90;;;;;;5030750;28;20053;-76
2023/12/23 03:27:23;;;;;;;1.45;1.00;;;5.10;99.90;;;;;;5030337;28;20120;-76
2023/12/23 03:29:49;;;;;;;0.77;0.77;;;5.10;99.90;;;;;;5014199;28;20045;-76
2023/12/23 03:32:14;;;;;;;1.98;0.93;;;5.10;99.90;;;;;;5014099;28;20046;-77
2023/12/23 03:34:41;;;;;;;1.55;0.95;;;5.80;99.90;;;;;;5030738;28;20080;-76
2023/12/23 03:37:06;;;;;;;1.38;0.88;;;5.00;99.90;;;;;;5014001;28;20049;-76
2023/12/23 03:39:32;;;;;;;2.22;1.10;;;5.20;99.90;;;;;;5030630;28;20568;-76
2023/12/23 03:41:58;;;;;;;1.38;0.88;;;5.00;99.90;;;;;;5014263;28;20444;-76
2023/12/23 03:44:23;;;;;;;2.00;0.90;;;5.00;99.90;;;;;;5030835;28;20083;-76
2023/12/23 03:46:49;;;;;;;1.45;0.80;;;5.00;99.90;;;;;;5030681;28;20493;-76
2023/12/23 03:49:15;;;;;;;1.27;0.80;;;4.90;99.90;;;;;;5030849;28;20042;-76
2023/12/23 03:51:40;;;;;;;1.80;0.90;;;5.00;99.90;;;;;;5013901;28;20132;-77
2023/12/23 03:54:06;;;;;;;2.17;0.80;;;5.00;99.90;;;;;;5030498;28;20033;-77
2023/12/23 03:56:31;;;;;;;1.48;0.98;;;4.90;99.90;;;;;;5030112;28;20092;-77
2023/12/23 03:58:58;;;;;;;1.40;1.00;;;5.00;99.90;;;;;;5030146;28;20046;-78
2023/12/23 04:01:24;;;;;;;1.90;1.08;;;4.90;99.90;;;;;;5016877;28;20143;-81
2023/12/23 04:03:50;;;;;;;0.82;0.82;;;4.90;99.90;;;;;;5036093;28;20080;-81
2023/12/23 04:06:16;;;;;;;0.95;0.70;;;5.00;99.90;;;;;;5018075;28;20478;-81
2023/12/23 04:08:42;;;;;;;1.45;0.98;;;5.80;99.90;;;;;;5018033;28;20041;-81
2023/12/23 04:11:08;;;;;;;2.47;1.33;;;4.90;99.90;;;;;;5036056;28;20045;-80
2023/12/23 04:13:34;;;;;;;1.35;1.00;;;5.10;99.90;;;;;;5038897;28;20472;-81
2023/12/23 04:16:05;;;;;;;1.02;0.73;;;5.00;99.90;;;;;;5022391;28;20567;-81
2023/12/23 04:18:31;;;;;;;3.10;0.95;;;4.90;99.90;;;;;;5039761;28;20069;-80
2023/12/23 04:20:57;;;;;;;2.08;1.55;;;4.90;99.90;;;;;;5040793;28;20566;-81
2023/12/23 04:23:23;;;;;;;1.70;1.17;;;4.90;99.90;;;;;;5020896;28;20049;-80
2023/12/23 04:25:49;;;;;;;2.28;1.58;;;5.50;99.90;;;;;;5017909;28;20049;-81
2023/12/23 04:28:15;;;;;;;1.17;0.75;;;4.90;99.90;;;;;;5017768;28;20132;-81
2023/12/23 04:30:41;;;;;;;1.88;1.02;;;5.00;99.90;;;;;;5034184;28;20038;-81
2023/12/23 04:33:07;;;;;;;1.85;1.20;;;4.90;99.90;;;;;;5034470;28;20095;-82
2023/12/23 04:35:33;;;;;;;2.03;0.80;;;5.10;99.90;;;;;;5033752;28;20045;-81
2023/12/23 04:37:59;;;;;;;2.20;1.40;;;4.90;99.90;;;;;;5017099;28;20572;-81
2023/12/23 04:40:24;;;;;;;1.83;1.02;;;4.90;99.90;;;;;;5017778;28;20486;-81
2023/12/23 04:42:50;;;;;;;1.92;1.00;;;5.10;99.90;;;;;;5033498;28;20048;-81
2023/12/23 04:45:16;;;;;;;1.83;0.90;;;5.00;99.90;;;;;;5033372;28;20058;-81
2023/12/23 04:47:41;;;;;;;0.98;0.93;;;5.20;99.90;;;;;;5016967;28;20034;-81
2023/12/23 04:50:07;;;;;;;1.27;0.93;;;5.00;99.90;;;;;;5035105;28;20165;-81
2023/12/23 04:52:33;;;;;;;1.58;1.33;;;4.90;99.90;;;;;;5017371;28;20114;-81
2023/12/23 04:54:59;;;;;;;1.23;0.93;;;4.90;99.90;;;;;;5033926;28;20060;-81
2023/12/23 04:57:27;;;;;;;1.75;1.02;;;5.00;99.90;;;;;;5033759;28;20128;-80
2023/12/23 04:59:52;;;;;;;0.70;0.70;;;5.00;99.90;;;;;;5032968;28;20080;-81
2023/12/23 05:02:18;;;;;;;1.13;0.73;;;5.10;99.90;;;;;;5016534;28;20088;-81
2023/12/23 05:04:46;;;;;;;1.58;0.88;;;5.10;99.90;;;;;;5016097;28;20044;-81
2023/12/23 05:07:12;;;;;;;1.58;0.98;;;5.00;99.90;;;;;;5016207;28;20037;-81
2023/12/23 05:09:37;;;;;;;1.38;0.77;;;5.80;99.90;;;;;;5032549;28;20127;-81
2023/12/23 05:12:03;;;;;;;1.00;0.90;;;5.00;99.90;;;;;;5032560;28;20129;-81
2023/12/23 05:14:29;;;;;;;1.15;1.05;;;5.00;99.90;;;;;;5032863;28;20041;-81
2023/12/23 05:16:55;;;;;;;0.75;0.75;;;5.00;99.90;;;;;;5033230;28;20099;-82
2023/12/23 05:19:20;;;;;;;1.33;0.80;;;5.00;99.90;;;;;;5016040;28;20041;-81
2023/12/23 05:21:46;;;;;;;0.77;0.70;;;5.00;99.90;;;;;;5016218;28;20049;-82
2023/12/23 05:24:12;;;;;;;0.80;0.65;;;5.00;99.90;;;;;;5015857;28;20048;-82
2023/12/23 05:26:38;;;;;;;1.40;0.75;;;5.00;99.90;;;;;;5015824;28;20037;-82
2023/12/23 05:29:04;;;;;;;1.15;0.77;;;5.00;99.90;;;;;;5032635;28;20094;-81
2023/12/23 05:31:29;;;;;;;0.60;0.60;;;5.00;99.90;;;;;;5032161;28;20140;-81
2023/12/23 05:33:56;;;;;;;1.13;0.80;;;5.00;99.90;;;;;;5015846;28;20551;-82
2023/12/23 05:36:22;;;;;;;0.70;0.70;;;4.90;99.90;;;;;;5015782;28;20041;-81
2023/12/23 05:38:48;;;;;;;0.60;0.60;;;4.90;99.90;;;;;;5015699;28;20041;-82
2023/12/23 05:41:14;;;;;;;0.70;0.70;;;4.90;99.90;;;;;;5032130;28;20740;-82
2023/12/23 05:43:39;;;;;;;0.70;0.70;;;5.40;99.90;;;;;;5015798;28;20061;-81
2023/12/23 05:46:05;;;;;;;1.25;0.75;;;4.90;99.90;;;;;;5015498;28;20045;-82
2023/12/23 05:48:31;;;;;;;0.80;0.80;;;4.90;99.90;;;;;;5015765;28;20041;-81
2023/12/23 05:50:56;;;;;;;0.82;0.60;;;4.90;99.90;;;;;;5031917;28;20053;-81
2023/12/23 05:53:22;;;;;;;0.63;0.60;;;5.00;99.90;;;;;;5032328;28;20475;-82
2023/12/23 05:55:48;;;;;;;1.73;0.68;;;5.00;99.90;;;;;;5032320;28;20149;-82
2023/12/23 05:58:14;;;;;;;0.57;0.57;;;4.90;99.90;;;;;;5015362;28;20148;-82
2023/12/23 06:00:40;;;;;;;0.60;0.60;;;5.00;99.90;;;;;;5031929;28;20091;-81
2023/12/23 06:03:05;;;;;;;0.65;0.65;;;4.90;99.90;;;;;;5031666;28;20047;-82
2023/12/23 06:05:31;;;;;;;0.70;0.50;;;4.90;99.90;;;;;;5031563;28;20265;-82
2023/12/23 06:07:58;;;;;;;0.57;0.52;;;4.90;99.90;;;;;;5031770;28;20041;-83
2023/12/23 06:10:24;;;;;;;3.55;0.90;;;5.00;99.90;;;;;;5015633;28;20064;-84
2023/12/23 06:12:50;;;;;;;0.50;0.50;;;5.00;99.90;;;;;;5014956;28;20045;-83
2023/12/23 06:15:16;;;;;;;1.65;0.90;;;5.00;99.90;;;;;;5031588;28;20041;-82
2023/12/23 06:17:41;;;;;;;0.60;0.60;;;5.60;99.90;;;;;;5031441;28;20049;-83
2023/12/23 06:20:07;;;;;;;0.60;0.60;;;4.90;99.90;;;;;;5031624;28;20041;-80
2023/12/23 06:22:33;;;;;;;0.57;0.50;;;4.90;99.90;;;;;;5014657;28;20042;-78
2023/12/23 06:24:59;;;;;;;0.40;0.40;;;4.90;99.90;;;;;;5031219;28;20115;-78
2023/12/23 06:27:24;;;;;;;0.50;0.50;;;4.90;99.90;;;;;;5031290;28;20090;-78
2023/12/23 06:29:50;;;;;;;0.50;0.50;;;5.00;99.90;;;;;;5015026;28;20041;-78
2023/12/23 06:32:16;;;;;;;0.85;0.60;;;4.90;99.90;;;;;;5014616;28;20045;-78
2023/12/23 06:34:41;;;;;;;0.82;0.68;;;4.90;99.90;;;;;;5014413;28;20037;-78
2023/12/23 06:37:07;;;;;;;0.45;0.45;;;4.90;99.90;;;;;;5014491;28;20513;-78
2023/12/23 06:39:32;;;;;;;0.68;0.60;;;4.90;99.90;;;;;;5031187;28;20038;-78
2023/12/23 06:41:58;;;;;;;0.60;0.60;;;4.90;99.90;;;;;;5030834;28;20132;-78
2023/12/23 06:44:24;;;;;;;0.60;0.60;;;4.90;99.90;;;;;;5014234;28;20433;-78
2023/12/23 06:46:51;;;;;;;0.50;0.50;;;4.90;99.90;;;;;;5014392;28;20041;-78
2023/12/23 06:49:17;;;;;;;0.60;0.52;;;4.90;99.90;;;;;;5030967;28;20128;-78
2023/12/23 06:51:43;;;;;;;0.57;0.57;;;4.90;99.90;;;;;;5014252;28;20128;-78
2023/12/23 06:54:09;;;;;;;0.55;0.55;;;4.90;99.90;;;;;;5031019;28;20049;-78
2023/12/23 06:56:34;;;;;;;0.68;0.50;;;4.90;99.90;;;;;;5030923;28;20044;-78
2023/12/23 06:59:01;;;;;;;0.50;0.50;;;4.90;99.90;;;;;;5014717;28;20087;-78
2023/12/23 07:01:37;;;;;;;0.60;0.60;;;4.90;99.90;;;;;;5014682;28;20467;-78
2023/12/23 07:04:02;;;;;;;0.60;0.60;;;4.90;99.90;;;;;;5030753;28;20081;-78
2023/12/23 07:06:28;;;;;;;0.52;0.52;;;4.90;99.90;;;;;;5014336;28;20080;-78
2023/12/23 07:08:54;;;;;;;0.47;0.47;;;4.90;99.90;;;;;;5014302;28;20126;-78
2023/12/23 07:11:19;;;;;;;0.63;0.60;;;4.90;99.90;;;;;;5030481;28;20045;-78
2023/12/23 07:13:45;;;;;;;0.55;0.55;;;4.90;99.90;;;;;;5014379;28;20033;-78
2023/12/23 07:16:10;;;;;;;1.05;0.57;;;4.90;99.90;;;;;;5030794;28;20046;-78
2023/12/23 07:18:36;;;;;;;0.68;0.50;;;4.80;99.90;;;;;;5030533;28;20087;-78
2023/12/23 07:21:02;;;;;;;0.52;0.52;;;4.80;99.90;;;;;;5030543;28;20052;-78
2023/12/23 07:23:28;;;;;;;0.75;0.68;;;4.70;99.90;;;;;;5030830;28;20086;-79
2023/12/23 07:25:53;;;;;;;0.65;0.63;;;5.70;99.90;;;;;;5014151;28;20041;-77
2023/12/23 07:28:19;;;;;;;0.50;0.50;;;4.70;99.90;;;;;;5014460;28;20045;-78
2023/12/23 07:30:45;;;;;;;1.00;0.80;;;4.70;99.90;;;;;;5014363;28;20037;-83
2023/12/23 07:33:14;;;;;;;0.75;0.52;;;4.70;99.90;;;;;;5030834;28;20095;-83
2023/12/23 07:35:39;;;;;;;0.57;0.57;;;4.60;99.90;;;;;;5032094;28;20063;-83
2023/12/23 07:38:05;;;;;;;1.40;0.88;;;4.70;99.90;;;;;;5034634;28;20045;-83
2023/12/23 07:40:31;;;;;;;1.85;0.60;;;4.60;99.90;;;;;;5034876;28;20393;-81
2023/12/23 07:42:58;;;;;;;0.60;0.60;;;4.70;99.90;;;;;;5017811;28;20037;-81
2023/12/23 07:45:24;;;;;;;0.50;0.50;;;4.80;99.90;;;;;;5034309;28;20038;-82
2023/12/23 07:47:49;;;;;;;0.43;0.43;;;4.60;99.90;;;;;;5034245;28;20048;-82
2023/12/23 07:50:15;;;;;;;0.50;0.50;;;4.70;99.90;;;;;;5034921;28;20037;-83
2023/12/23 07:52:41;;;;;;;0.50;0.50;;;4.60;99.90;;;;;;5018175;28;20465;-82
2023/12/23 07:55:07;;;;;;;0.50;0.50;;;5.40;99.90;;;;;;5034167;28;20037;-82
2023/12/23 07:57:33;;;;;;;0.40;0.40;;;4.70;99.90;;;;;;5018256;28;20037;-83
2023/12/23 07:59:58;;;;;;;0.50;0.50;;;4.70;99.90;;;;;;5017835;28;20504;-82
2023/12/23 08:02:24;;;;;;;0.50;0.50;;;4.70;99.90;;;;;;5018609;28;20108;-83
2023/12/23 08:04:50;;;;;;;0.50;0.50;;;4.90;99.90;;;;;;5035273;28;20449;-83
2023/12/23 08:07:15;;;;;;;0.47;0.47;;;4.60;99.90;;;;;;5034101;28;20048;-83
2023/12/23 08:09:41;;;;;;;0.50;0.50;;;4.60;99.90;;;;;;5034020;28;20050;-83
2023/12/23 08:12:08;;;;;;;0.52;0.52;;;4.70;99.90;;;;;;5034486;28;20497;-84
2023/12/23 08:14:33;;;;;;;0.50;0.50;;;4.60;99.90;;;;;;5017230;28;20128;-84
2023/12/23 08:17:01;;;;;;;0.60;0.60;;;4.60;99.90;;;;;;5034046;28;20147;-82
2023/12/23 08:19:26;;;;;;;0.52;0.52;;;4.60;99.90;;;;;;5033488;28;20409;-83
2023/12/23 08:21:52;;;;;;;0.63;0.50;;;4.60;99.90;;;;;;5016944;28;20041;-83
2023/12/23 08:24:18;;;;;;;0.40;0.40;;;4.60;99.90;;;;;;5033318;28;20099;-83
2023/12/23 08:26:44;;;;;;;0.50;0.50;;;4.60;99.90;;;;;;5033249;28;20122;-84
2023/12/23 08:29:12;;;;;;;0.60;0.60;;;4.60;99.90;;;;;;5017767;28;20092;-82
2023/12/23 08:31:43;;;;;;;0.75;0.50;;;4.60;99.90;;;;;;5033240;28;20041;-85
2023/12/23 08:34:08;;;;;;;0.50;0.50;;;4.60;99.90;;;;;;5016957;28;20543;-84
2023/12/23 08:36:34;;;;;;;0.50;0.50;;;4.70;99.90;;;;;;5016595;28;20367;-84
2023/12/23 08:39:00;;;;;;;0.50;0.50;;;4.70;99.90;;;;;;5033718;28;20048;-84
2023/12/23 08:41:26;;;;;;;0.40;0.40;;;4.70;99.90;;;;;;5018207;28;20037;-85
2023/12/23 08:43:51;;;;;;;0.30;0.30;;;4.70;99.90;;;;;;5017202;28;20063;-84
2023/12/23 08:46:17;;;;;;;0.40;0.40;;;4.70;99.90;;;;;;5032281;28;20042;-83
2023/12/23 08:48:43;;;;;;;0.43;0.43;;;5.20;99.90;;;;;;5033370;28;20076;-82
2023/12/23 08:51:08;;;;;;;0.50;0.50;;;4.70;99.90;;;;;;5033239;28;20508;-77
2023/12/23 08:53:34;;;;;;;0.50;0.50;;;4.60;99.90;;;;;;5016606;28;20415;-77
2023/12/23 08:56:00;;;;;;;0.45;0.45;;;4.70;99.90;;;;;;5016188;28;20037;-77
2023/12/23 08:58:26;;;;;;;0.45;0.45;;;4.70;99.90;;;;;;5016191;28;20410;-77
2023/12/23 09:00:52;;;;;;;0.50;0.50;;;5.00;99.90;;;;;;5016053;28;20118;-77
2023/12/23 09:03:18;;;;;;;0.40;0.40;;;4.80;99.90;;;;;;5016459;28;20048;-77
2023/12/23 09:05:43;;;;;;;0.43;0.43;;;4.80;99.90;;;;;;5015993;28;20405;-77
2023/12/23 09:08:11;;;;;;;0.50;0.50;;;4.80;99.90;;;;;;5032510;28;20087;-77
2023/12/23 09:10:37;;;;;;;0.65;0.40;;;4.80;99.90;;;;;;5016151;28;20053;-77
2023/12/23 09:13:04;;;;;;;0.40;0.40;;;4.70;99.90;;;;;;5032344;28;20044;-77
2023/12/23 09:15:30;;;;;;;0.50;0.50;;;4.80;99.90;;;;;;5016276;28;20505;-80
2023/12/23 09:17:55;;;;;;;0.40;0.40;;;4.80;99.90;;;;;;5032196;28;20034;-77
2023/12/23 09:20:21;;;;;;;0.40;0.40;;;4.90;99.90;;;;;;5048762;28;20057;-77
2023/12/23 09:22:47;;;;;;;0.50;0.50;;;4.80;99.90;;;;;;5015755;28;20043;-75
2023/12/23 09:25:12;;;;;;;0.50;0.50;;;4.80;99.90;;;;;;5032912;28;20045;-77
2023/12/23 09:27:38;;;;;;;0.50;0.50;;;4.80;99.90;;;;;;5016977;28;20471;-76
2023/12/23 09:30:05;;;;;;;0.40;0.40;;;4.80;99.90;;;;;;5016661;28;20042;-77
2023/12/23 09:32:31;;;;;;;0.30;0.30;;;4.80;99.90;;;;;;5016416;28;20096;-79
2023/12/23 09:34:58;;;;;;;0.50;0.50;;;4.80;99.90;;;;;;5031892;28;20041;-78
2023/12/23 09:37:25;;;;;;;0.50;0.50;;;4.80;99.90;;;;;;5031803;28;20120;-78
2023/12/23 09:39:51;;;;;;;0.88;0.50;;;4.80;99.90;;;;;;5031955;28;20056;-76
2023/12/23 09:42:16;;;;;;;0.45;0.45;;;4.80;99.90;;;;;;5032307;28;20045;-76
2023/12/23 09:44:43;;;;;;;0.47;0.47;;;5.50;99.90;;;;;;5015377;28;20054;-76
2023/12/23 09:47:09;;;;;;;0.40;0.40;;;4.90;99.90;;;;;;5031910;28;20386;-76
2023/12/23 09:49:36;;;;;;;0.40;0.40;;;4.80;99.90;;;;;;5015296;28;20052;-76
2023/12/23 09:52:06;;;;;;;0.40;0.40;;;4.90;99.90;;;;;;5015863;28;20048;-81
2023/12/23 09:54:38;;;;;;;0.50;0.50;;;4.80;99.90;;;;;;5032219;28;20041;-83
2023/12/23 09:57:04;;;;;;;0.50;0.50;;;4.90;99.90;;;;;;5032618;28;20037;-86
2023/12/23 09:59:31;;;;;;;0.60;0.60;;;4.90;99.90;;;;;;5031399;28;20042;-82
2023/12/23 10:01:57;;;;;;;0.55;0.55;;;4.90;99.90;;;;;;5031710;28;20041;-79
2023/12/23 10:04:22;;;;;;;0.70;0.70;;;4.90;99.90;;;;;;5015396;28;20045;-78
2023/12/23 10:06:50;;;;;;;1.08;0.70;;;5.80;99.90;;;;;;5031157;28;20038;-79
2023/12/23 10:09:16;;;;;;;0.63;0.60;;;5.00;99.90;;;;;;5031239;28;20398;-79
2023/12/23 10:11:42;;;;;;;0.50;0.50;;;5.00;99.90;;;;;;5031673;28;20050;-79
2023/12/23 10:14:08;;;;;;;0.50;0.50;;;4.90;99.90;;;;;;5015062;28;20133;-78
2023/12/23 10:16:33;;;;;;;0.45;0.45;;;5.00;99.90;;;;;;5015030;28;20091;-79
2023/12/23 10:19:00;;;;;;;0.55;0.55;;;4.90;99.90;;;;;;5014813;28;20041;-79
2023/12/23 10:21:26;;;;;;;0.57;0.50;;;4.90;99.90;;;;;;5031117;28;20053;-77
2023/12/23 10:23:53;;;;;;;0.60;0.60;;;5.00;99.90;;;;;;5031004;28;20508;-77
2023/12/23 10:26:19;;;;;;;0.50;0.50;;;4.90;99.90;;;;;;5015021;28;20037;-77
2023/12/23 10:28:52;;;;;;;0.40;0.40;;;5.10;99.90;;;;;;5014294;28;20099;-78
2023/12/23 10:31:21;;;;;;;0.43;0.43;;;5.00;99.90;;;;;;5030782;28;20084;-77
2023/12/23 10:33:52;;;;;;;0.40;0.40;;;5.00;99.90;;;;;;5031058;28;20069;-78
2023/12/23 10:36:19;;;;;;;0.50;0.50;;;5.20;99.90;;;;;;5030794;28;20038;-77
2023/12/23 10:38:52;;;;;;;0.50;0.50;;;5.00;99.90;;;;;;5030614;28;20041;-78
2023/12/23 10:41:47;;;;;;;0.50;0.50;;;5.00;99.90;;;;;;5030641;28;20136;-77
2023/12/23 10:44:16;;;;;;;0.50;0.50;;;5.00;99.90;;;;;;5030831;28;20071;-76
2023/12/23 10:46:43;;;;;;;0.40;0.40;;;5.00;99.90;;;;;;5014499;28;20144;-76
2023/12/23 10:49:10;;;;;;;0.50;0.50;;;5.10;99.90;;;;;;5014213;28;20042;-76
2023/12/23 10:51:38;;;;;;;0.70;0.60;;;5.20;99.90;;;;;;5030592;28;20045;-76
2023/12/23 10:54:05;;;;;;;0.50;0.50;;;5.20;99.90;;;;;;5014146;28;20048;-76
2023/12/23 10:56:33;;;;;;;0.50;0.50;;;5.50;99.90;;;;;;5030882;28;20493;-84
2023/12/23 10:59:00;;;;;;;0.50;0.50;;;5.30;99.90;;;;;;5014005;28;20049;-76
2023/12/23 11:01:28;;;;;;;0.40;0.40;;;5.70;99.90;;;;;;5014295;28;20485;-76
2023/12/23 11:03:59;;;;;;;0.52;0.52;;;5.70;99.90;;;;;;5014479;28;20132;-79
2023/12/23 11:06:26;;;;;;;;;;;5.10;99.90;;;;;;5014776;28;20477;-76
2023/12/23 11:08:53;;;;;;;0.40;0.40;;;5.30;99.90;;;;;;5030487;28;19964;-77
2023/12/23 11:11:19;;;;;;;0.50;0.50;;;5.30;99.90;;;;;;5035539;28;20038;-81
2023/12/23 11:13:44;;;;;;;0.40;0.40;;;5.70;99.90;;;;;;5018205;28;20045;-77
2023/12/23 11:16:12;;;;;;;0.50;0.50;;;5.10;99.90;;;;;;5019184;28;20094;-76
2023/12/23 11:18:39;;;;;;;0.40;0.40;;;5.30;99.90;;;;;;5034554;28;20404;-76
2023/12/23 11:21:20;;;;;;;0.40;0.40;;;5.40;99.90;;;;;;5017850;28;20115;-76
2023/12/23 11:23:46;;;;;;;0.50;0.50;;;5.40;99.90;;;;;;5034398;28;20045;-77
2023/12/23 11:26:41;;;;;;;0.40;0.40;;;5.90;99.90;;;;;;5034377;28;20045;-76
2023/12/23 11:29:08;;;;;;;0.57;0.57;;;5.50;99.90;;;;;;5017856;28;20175;-76
2023/12/23 11:31:34;;;;;;;0.50;0.50;;;6.20;99.90;;;;;;5034350;28;20045;-75
2023/12/23 11:34:00;;;;;;;0.50;0.50;;;6.10;99.90;;;;;;5034704;28;20516;-76
2023/12/23 11:36:26;;;;;;;0.50;0.50;;;5.50;99.90;;;;;;5034412;28;20064;-76
2023/12/23 11:38:52;;;;;;;0.52;0.52;;;5.50;99.90;;;;;;5034289;28;20485;-76
2023/12/23 11:41:19;;;;;;;0.60;0.60;;;5.50;99.90;;;;;;5017821;28;20073;-77
2023/12/23 11:43:46;;;;;;;0.50;0.50;;;5.70;99.90;;;;;;5034150;28;20132;-77
2023/12/23 11:46:18;;;;;;;0.60;0.60;;;6.30;99.90;;;;;;5034128;28;20049;-77
2023/12/23 11:48:44;;;;;;;0.60;0.60;;;5.60;99.90;;;;;;5018663;28;20076;-81
2023/12/23 11:51:10;;;;;;;0.60;0.60;;;5.60;99.90;;;;;;5034159;28;20143;-76
2023/12/23 11:53:37;;;;;;;0.50;0.50;;;5.60;99.90;;;;;;5034134;28;20068;-76
2023/12/23 11:56:05;;;;;;;0.57;0.52;;;5.60;99.90;;;;;;5018053;28;20045;-76
2023/12/23 11:58:31;;;;;;;0.50;0.50;;;5.60;99.90;;;;;;5017578;28;20037;-77
2023/12/23 12:00:58;;;;;;;0.50;0.50;;;5.60;99.90;;;;;;5017262;28;20049;-77
2023/12/23 12:03:24;;;;;;;0.50;0.50;;;5.60;99.90;;;;;;5017431;28;20045;-77
2023/12/23 12:05:57;;;;;;;0.55;0.55;;;5.70;99.90;;;;;;5018037;28;20037;-76
2023/12/23 12:08:23;;;;;;;0.50;0.50;;;5.60;99.90;;;;;;5034643;28;20045;-77
2023/12/23 12:10:49;;;;;;;0.50;0.50;;;5.60;99.90;;;;;;5034163;28;20041;-77
2023/12/23 12:13:15;;;;;;;0.50;0.50;;;5.60;99.90;;;;;;5034197;28;20064;-77
2023/12/23 12:15:42;;;;;;;0.40;0.40;;;5.80;99.90;;;;;;5034230;28;20033;-77
2023/12/23 12:18:08;;;;;;;0.40;0.40;;;5.80;99.90;;;;;;5034085;28;20083;-77
2023/12/23 12:20:34;;;;;;;0.50;0.50;;;5.70;99.90;;;;;;5033521;28;20042;-77
2023/12/23 12:23:02;;;;;;;0.50;0.50;;;5.80;99.90;;;;;;5033672;28;20087;-77
2023/12/23 12:25:28;;;;;;;0.40;0.40;;;5.80;99.90;;;;;;5017612;28;20088;-77
2023/12/23 12:27:58;;;;;;;0.50;0.50;;;5.80;99.90;;;;;;5034279;28;20508;-77
2023/12/23 12:30:23;;;;;;;0.50;0.50;;;5.90;99.90;;;;;;5017511;28;20041;-78
2023/12/23 12:32:51;;;;;;;0.50;0.50;;;5.80;99.90;;;;;;5017577;28;20041;-78
2023/12/23 12:35:18;;;;;;;0.50;0.50;;;5.80;99.90;;;;;;5017380;28;20044;-78
2023/12/23 12:37:43;;;;;;;0.50;0.50;;;5.90;99.90;;;;;;5033771;28;20087;-78
2023/12/23 12:40:11;;;;;;;0.50;0.50;;;5.90;99.90;;;;;;5034633;28;20045;-78
2023/12/23 12:42:38;;;;;;;0.60;0.60;;;5.90;99.90;;;;;;5035047;28;20087;-77
2023/12/23 12:45:05;;;;;;;0.60;0.60;;;5.90;99.90;;;;;;5034767;28;20068;-83
2023/12/23 12:47:31;;;;;;;0.60;0.60;;;5.90;99.90;;;;;;5036232;28;20136;-83
2023/12/23 12:50:04;;;;;;;0.57;0.57;;;6.00;99.90;;;;;;5020283;28;20041;-83
2023/12/23 12:52:30;;;;;;;0.55;0.55;;;7.20;99.90;;;;;;5035989;28;20044;-83
2023/12/23 12:55:06;;;;;;;0.70;0.70;;;6.10;99.90;;;;;;5034977;28;20128;-82